createdAt,value
2023-04-25T00:01:25.281Z,73.61
2023-04-25T00:03:52.314Z,73.95
2023-04-25T00:06:19.559Z,73.31
2023-04-25T00:08:46.347Z,73.55
2023-04-25T00:11:13.040Z,73.30
2023-04-25T00:13:42.669Z,73.48
2023-04-25T00:16:09.625Z,73.52
2023-04-25T00:18:37.392Z,73.79
2023-04-25T00:21:07.094Z,73.81
2023-04-25T00:23:33.854Z,73.68
2023-04-25T00:26:00.495Z,73.59
2023-04-25T00:28:27.173Z,73.93
2023-04-25T00:30:54.086Z,74.28
2023-04-25T00:33:20.794Z,74.28
2023-04-25T00:35:47.557Z,74.55
2023-04-25T00:38:14.425Z,74.52
2023-04-25T00:40:41.148Z,74.66
2023-04-25T00:43:07.846Z,74.43
2023-04-25T00:45:39.094Z,74.46
2023-04-25T00:48:05.945Z,74.65
2023-04-25T00:50:34.864Z,74.46
2023-04-25T00:53:01.641Z,74.28
2023-04-25T00:55:28.480Z,74.27
2023-04-25T00:57:55.367Z,74.30
2023-04-25T01:00:22.552Z,74.27
2023-04-25T01:02:49.441Z,74.53
2023-04-25T01:05:16.433Z,74.16
2023-04-25T01:07:43.291Z,73.71
2023-04-25T01:10:10.369Z,74.06
2023-04-25T01:12:37.153Z,74.63
2023-04-25T01:15:04.461Z,74.62
2023-04-25T01:17:32.433Z,74.72
2023-04-25T01:19:59.365Z,74.66
2023-04-25T01:22:26.828Z,74.79
2023-04-25T01:24:53.634Z,74.91
2023-04-25T01:27:21.787Z,74.87
2023-04-25T01:29:48.830Z,75.06
2023-04-25T01:32:16.029Z,75.03
2023-04-25T01:34:42.853Z,75.03
2023-04-25T01:37:09.646Z,75.34
2023-04-25T01:39:36.381Z,76.06
2023-04-25T01:42:03.288Z,74.80
2023-04-25T01:44:30.054Z,74.97
2023-04-25T01:46:56.818Z,74.92
2023-04-25T01:49:24.634Z,74.93
2023-04-25T01:51:51.444Z,75.30
2023-04-25T01:54:18.210Z,75.04
2023-04-25T01:56:45.194Z,74.91
2023-04-25T01:59:12.208Z,74.47
2023-04-25T02:01:38.998Z,74.34
2023-04-25T02:04:05.969Z,73.87
2023-04-25T02:06:33.203Z,73.68
2023-04-25T02:09:00.000Z,73.57
2023-04-25T02:11:26.748Z,73.17
2023-04-25T02:13:53.446Z,72.66
2023-04-25T02:16:20.376Z,72.23
2023-04-25T02:18:47.977Z,72.40
2023-04-25T02:21:14.746Z,71.98
2023-04-25T02:23:41.588Z,71.59
2023-04-25T02:26:08.278Z,71.43
2023-04-25T02:28:35.017Z,70.55
2023-04-25T02:31:01.822Z,69.58
2023-04-25T02:33:28.596Z,68.62
2023-04-25T02:35:55.371Z,67.93
2023-04-25T02:38:22.048Z,66.63
2023-04-25T02:40:48.746Z,66.71
2023-04-25T02:43:15.470Z,65.57
2023-04-25T02:45:42.205Z,66.38
2023-04-25T02:48:08.989Z,65.98
2023-04-25T02:50:35.849Z,66.12
2023-04-25T02:53:02.554Z,66.06
2023-04-25T02:55:29.251Z,66.66
2023-04-25T02:57:58.741Z,67.96
2023-04-25T03:00:25.537Z,68.23
2023-04-25T03:02:52.385Z,68.80
2023-04-25T03:05:19.246Z,69.98
2023-04-25T03:07:46.716Z,70.31
2023-04-25T03:10:13.437Z,70.62
2023-04-25T03:12:40.300Z,71.55
2023-04-25T03:15:07.420Z,71.68
2023-04-25T03:17:34.359Z,72.05
2023-04-25T03:20:01.529Z,72.00
2023-04-25T03:22:28.313Z,72.36
2023-04-25T03:24:55.105Z,71.98
2023-04-25T03:27:21.866Z,72.05
2023-04-25T03:29:48.661Z,72.07
2023-04-25T03:32:15.388Z,72.29
2023-04-25T03:34:42.304Z,72.63
2023-04-25T03:37:09.029Z,72.81
2023-04-25T03:39:36.144Z,72.91
2023-04-25T03:42:03.980Z,72.67
2023-04-25T03:44:30.822Z,72.87
2023-04-25T03:46:57.804Z,73.20
2023-04-25T03:49:25.337Z,73.94
2023-04-25T03:51:52.064Z,74.17
2023-04-25T03:54:18.818Z,73.90
2023-04-25T03:56:45.524Z,74.74
2023-04-25T03:59:15.238Z,74.96
2023-04-25T04:01:41.982Z,74.52
2023-04-25T04:04:09.189Z,74.96
2023-04-25T04:06:37.451Z,75.54
2023-04-25T04:09:04.424Z,76.25
2023-04-25T04:11:32.371Z,76.97
2023-04-25T04:13:59.222Z,76.52
2023-04-25T04:16:26.087Z,76.93
2023-04-25T04:18:52.843Z,76.74
2023-04-25T04:21:19.565Z,76.52
2023-04-25T04:23:47.568Z,76.37
2023-04-25T04:26:16.309Z,76.35
2023-04-25T04:28:44.988Z,76.43
2023-04-25T04:31:12.636Z,77.78
2023-04-25T04:33:39.439Z,76.31
2023-04-25T04:36:08.587Z,76.04
2023-04-25T04:38:35.646Z,75.97
2023-04-25T04:41:02.474Z,77.13
2023-04-25T04:43:29.585Z,77.11
2023-04-25T04:45:59.660Z,77.19
2023-04-25T04:48:26.382Z,78.17
2023-04-25T04:50:53.213Z,77.26
2023-04-25T04:53:20.042Z,78.55
2023-04-25T04:55:47.201Z,78.49
2023-04-25T04:58:14.013Z,78.56
2023-04-25T05:00:41.291Z,79.01
2023-04-25T05:03:08.227Z,78.32
2023-04-25T05:05:35.597Z,78.67
2023-04-25T05:08:04.464Z,79.25
2023-04-25T05:10:31.174Z,78.94
2023-04-25T05:12:57.887Z,79.17
2023-04-25T05:15:24.655Z,79.44
2023-04-25T05:17:51.639Z,79.49
2023-04-25T05:20:20.005Z,80.57
2023-04-25T05:22:46.861Z,79.96
2023-04-25T05:25:13.611Z,80.28
2023-04-25T05:27:40.309Z,80.34
2023-04-25T05:30:08.031Z,80.17
2023-04-25T05:32:34.832Z,80.83
2023-04-25T05:35:01.639Z,81.38
2023-04-25T05:37:28.352Z,83.02
2023-04-25T05:39:55.329Z,81.63
2023-04-25T05:42:22.270Z,80.30
2023-04-25T05:44:49.087Z,77.81
2023-04-25T05:47:16.245Z,76.63
2023-04-25T05:49:42.970Z,76.85
2023-04-25T05:52:09.656Z,76.68
2023-04-25T05:54:36.462Z,75.62
2023-04-25T05:57:03.720Z,75.72
2023-04-25T05:59:30.509Z,76.56
2023-04-25T06:01:57.220Z,74.07
2023-04-25T06:04:24.236Z,75.20
2023-04-25T06:06:51.638Z,75.50
2023-04-25T06:09:18.460Z,76.40
2023-04-25T06:11:45.799Z,77.02
2023-04-25T06:14:12.501Z,77.59
2023-04-25T06:16:39.257Z,78.00
2023-04-25T06:19:06.214Z,78.40
2023-04-25T06:21:33.434Z,79.49
2023-04-25T06:24:00.444Z,78.89
2023-04-25T06:26:27.168Z,78.94
2023-04-25T06:28:53.922Z,80.24
2023-04-25T06:31:20.826Z,80.05
2023-04-25T06:33:49.498Z,80.40
2023-04-25T06:36:16.491Z,79.49
2023-04-25T06:38:43.430Z,80.10
2023-04-25T06:41:10.663Z,79.82
2023-04-25T06:43:37.425Z,79.30
2023-04-25T06:46:04.377Z,78.92
2023-04-25T06:48:31.151Z,78.53
2023-04-25T06:50:57.919Z,78.61
2023-04-25T06:53:24.642Z,78.35
2023-04-25T06:55:51.386Z,78.13
2023-04-25T06:58:18.821Z,77.23
2023-04-25T07:00:45.714Z,77.19
2023-04-25T07:03:14.546Z,77.15
2023-04-25T07:05:41.633Z,77.73
2023-04-25T07:08:08.382Z,76.34
2023-04-25T07:10:36.136Z,76.01
2023-04-25T07:13:02.928Z,75.46
2023-04-25T07:15:29.711Z,75.49
2023-04-25T07:17:56.521Z,75.64
2023-04-25T07:20:23.314Z,74.56
2023-04-25T07:22:51.169Z,73.90
2023-04-25T07:25:18.307Z,74.30
2023-04-25T07:27:45.470Z,75.23
2023-04-25T07:30:13.294Z,75.10
2023-04-25T07:32:40.704Z,75.35
2023-04-25T07:35:08.829Z,73.10
2023-04-25T07:37:36.472Z,71.29
2023-04-25T07:40:05.006Z,71.75
2023-04-25T07:42:32.333Z,70.80
2023-04-25T07:44:59.085Z,69.97
2023-04-25T07:47:26.550Z,69.08
2023-04-25T07:49:55.487Z,68.33
2023-04-25T07:52:22.561Z,68.72
2023-04-25T07:54:49.704Z,64.83
2023-04-25T07:57:18.052Z,65.42
2023-04-25T07:59:44.957Z,65.47
2023-04-25T08:02:11.763Z,63.73
2023-04-25T08:04:38.725Z,62.25
2023-04-25T08:07:05.588Z,61.16
2023-04-25T08:09:35.648Z,60.11
2023-04-25T08:12:03.138Z,62.67
2023-04-25T08:14:36.787Z,60.57
2023-04-25T08:17:04.770Z,59.49
2023-04-25T08:19:31.874Z,58.60
2023-04-25T08:21:59.000Z,58.29
2023-04-25T08:24:27.220Z,58.31
2023-04-25T08:26:54.979Z,57.04
2023-04-25T08:29:22.273Z,57.60
2023-04-25T08:31:49.357Z,57.81
2023-04-25T08:34:16.302Z,58.25
2023-04-25T08:36:43.139Z,59.09
2023-04-25T08:39:09.898Z,58.25
2023-04-25T08:41:38.177Z,58.03
2023-04-25T08:44:06.544Z,58.08
2023-04-25T08:46:33.751Z,59.62
2023-04-25T08:49:03.205Z,58.34
2023-04-25T08:51:33.188Z,58.51
2023-04-25T08:56:48.913Z,58.55
2023-04-25T08:59:15.931Z,57.14
2023-04-25T09:01:44.709Z,57.49
2023-04-25T09:04:13.748Z,56.48
2023-04-25T09:06:41.015Z,55.46
2023-04-25T09:09:09.638Z,55.60
2023-04-25T09:11:37.565Z,53.67
2023-04-25T09:14:26.107Z,54.60
2023-04-25T09:17:00.554Z,54.76
2023-04-25T09:19:46.862Z,54.75
2023-04-25T09:22:14.079Z,54.44
2023-04-25T09:24:47.144Z,54.12
2023-04-25T09:27:19.754Z,53.90
2023-04-25T09:29:47.384Z,54.73
2023-04-25T09:32:22.531Z,54.41
2023-04-25T09:34:51.609Z,53.21
2023-04-25T09:37:20.417Z,52.38
2023-04-25T09:39:48.812Z,52.15
2023-04-25T09:42:17.329Z,51.52
2023-04-25T09:44:45.861Z,50.96
2023-04-25T09:47:14.163Z,50.29
2023-04-25T09:49:45.059Z,49.61
2023-04-25T09:52:19.428Z,48.41
2023-04-25T09:54:47.330Z,48.25
2023-04-25T09:57:25.285Z,47.51
2023-04-25T09:59:53.817Z,47.56
2023-04-25T10:02:26.253Z,46.99
2023-04-25T10:04:56.150Z,46.95
2023-04-25T10:07:29.585Z,45.59
2023-04-25T10:10:01.583Z,46.13
2023-04-25T10:12:28.486Z,45.51
2023-04-25T10:14:56.067Z,46.53
2023-04-25T10:17:23.208Z,46.76
2023-04-25T10:19:50.500Z,46.77
2023-04-25T10:22:38.383Z,45.92
2023-04-25T10:25:05.971Z,46.66
2023-04-25T10:27:32.951Z,46.82
2023-04-25T10:30:12.571Z,45.53
2023-04-25T10:32:39.744Z,45.52
2023-04-25T10:35:13.496Z,45.37
2023-04-25T10:37:58.408Z,45.21
2023-04-25T10:40:25.563Z,45.21
2023-04-25T10:42:56.232Z,46.59
2023-04-25T10:45:23.321Z,44.02
2023-04-25T10:47:51.470Z,42.89
2023-04-25T10:50:19.022Z,42.88
2023-04-25T10:52:47.831Z,40.66
2023-04-25T10:55:14.854Z,40.76
2023-04-25T10:57:43.256Z,38.01
2023-04-25T11:00:12.673Z,37.36
2023-04-25T11:03:00.683Z,36.82
2023-04-25T11:05:50.971Z,33.51
2023-04-25T11:08:41.117Z,32.20
2023-04-25T11:11:09.129Z,32.10
2023-04-25T11:13:35.895Z,30.55
2023-04-25T11:16:12.175Z,29.47
2023-04-25T11:18:42.803Z,28.61
2023-04-25T11:21:12.379Z,29.03
2023-04-25T11:23:39.144Z,29.95
2023-04-25T11:26:06.097Z,30.77
2023-04-25T11:28:33.016Z,29.31
2023-04-25T11:30:59.814Z,26.69
2023-04-25T11:33:28.175Z,25.21
2023-04-25T11:35:56.408Z,24.96
2023-04-25T11:38:28.716Z,25.75
2023-04-25T11:40:56.404Z,26.62
2023-04-25T11:43:23.645Z,27.75
2023-04-25T11:45:52.079Z,29.60
2023-04-25T11:48:26.053Z,29.90
2023-04-25T11:50:55.026Z,30.88
2023-04-25T11:53:22.038Z,31.40
2023-04-25T11:55:48.877Z,32.57
2023-04-25T11:58:15.667Z,33.02
2023-04-25T12:00:50.576Z,34.79
2023-04-25T12:03:21.369Z,35.35
2023-04-25T12:05:48.583Z,35.40
2023-04-25T12:08:17.221Z,36.25
2023-04-25T12:10:46.427Z,36.16
2023-04-25T12:13:24.734Z,33.95
2023-04-25T12:15:51.825Z,33.15
2023-04-25T12:18:24.364Z,31.76
2023-04-25T12:20:51.156Z,27.92
2023-04-25T12:23:17.942Z,25.36
2023-04-25T12:25:48.076Z,24.83
2023-04-25T12:28:20.704Z,20.91
2023-04-25T12:31:04.206Z,18.95
2023-04-25T12:33:33.570Z,18.48
2023-04-25T12:36:02.058Z,18.60
2023-04-25T12:38:31.440Z,17.87
2023-04-25T12:40:59.174Z,16.07
2023-04-25T12:43:25.973Z,15.15
2023-04-25T12:45:56.535Z,15.37
2023-04-25T12:48:23.875Z,14.60
2023-04-25T12:50:54.947Z,13.60
2023-04-25T12:53:23.981Z,12.47
2023-04-25T12:55:50.900Z,11.87
2023-04-25T12:58:19.039Z,11.73
2023-04-25T13:00:46.135Z,10.91
2023-04-25T13:03:14.133Z,11.68
2023-04-25T13:05:42.086Z,12.50
2023-04-25T13:08:09.138Z,11.90
2023-04-25T13:10:37.080Z,11.05
2023-04-25T13:13:03.992Z,10.88
2023-04-25T13:15:31.748Z,10.92
2023-04-25T13:17:58.525Z,10.66
2023-04-25T13:20:25.774Z,11.14
2023-04-25T13:22:52.662Z,9.94
2023-04-25T13:25:19.872Z,10.26
2023-04-25T13:27:47.449Z,10.67
2023-04-25T13:30:14.780Z,10.18
2023-04-25T13:32:42.147Z,9.32
2023-04-25T13:35:13.487Z,9.97
2023-04-25T13:37:40.862Z,10.48
2023-04-25T13:40:11.162Z,10.20
2023-04-25T13:42:39.180Z,10.44
2023-04-25T13:45:06.803Z,12.38
2023-04-25T13:47:33.760Z,12.47
2023-04-25T13:50:01.245Z,12.01
2023-04-25T13:52:28.397Z,12.05
2023-04-25T13:54:55.305Z,11.35
2023-04-25T13:57:22.035Z,10.21
2023-04-25T13:59:48.915Z,9.91
2023-04-25T14:02:16.715Z,9.85
2023-04-25T14:04:43.592Z,10.57
2023-04-25T14:07:11.949Z,11.25
2023-04-25T14:09:38.789Z,11.57
2023-04-25T14:12:07.650Z,12.65
2023-04-25T14:14:34.423Z,12.88
2023-04-25T14:17:01.439Z,13.80
2023-04-25T14:19:29.726Z,14.23
2023-04-25T14:21:57.090Z,14.70
2023-04-25T14:24:23.804Z,13.69
2023-04-25T14:26:50.823Z,13.07
2023-04-25T14:29:17.837Z,11.62
2023-04-25T14:31:46.113Z,12.46
2023-04-25T14:34:13.060Z,11.08
2023-04-25T14:36:39.831Z,10.68
2023-04-25T14:39:06.668Z,12.50
2023-04-25T14:41:33.435Z,10.96
2023-04-25T14:44:00.933Z,10.31
2023-04-25T14:46:27.948Z,10.41
2023-04-25T14:48:56.755Z,10.68
2023-04-25T14:51:23.893Z,9.80
2023-04-25T14:53:52.266Z,9.37
2023-04-25T14:56:19.811Z,9.44
2023-04-25T14:58:46.706Z,10.37
2023-04-25T15:01:14.067Z,11.13
2023-04-25T15:03:41.670Z,12.50
2023-04-25T15:06:08.588Z,14.37
2023-04-25T15:08:35.591Z,16.37
2023-04-25T15:11:03.378Z,17.95
2023-04-25T15:13:30.270Z,19.40
2023-04-25T15:15:56.968Z,21.40
2023-04-25T15:18:24.756Z,22.06
2023-04-25T15:20:52.611Z,23.79
2023-04-25T15:23:20.815Z,24.00
2023-04-25T15:25:48.282Z,24.78
2023-04-25T15:28:16.855Z,26.11
2023-04-25T15:30:44.488Z,26.64
2023-04-25T15:33:11.354Z,26.82
2023-04-25T15:35:38.363Z,27.67
2023-04-25T15:38:05.538Z,29.14
2023-04-25T15:40:32.287Z,30.84
2023-04-25T15:42:59.742Z,32.73
2023-04-25T15:45:26.798Z,33.15
2023-04-25T15:47:55.237Z,34.21
2023-04-25T15:50:22.489Z,35.94
2023-04-25T15:52:50.521Z,37.61
2023-04-25T15:55:21.123Z,38.59
2023-04-25T15:57:49.765Z,39.66
2023-04-25T16:00:21.202Z,40.04
2023-04-25T16:02:48.684Z,40.80
2023-04-25T16:05:16.534Z,41.79
2023-04-25T16:07:44.814Z,42.73
2023-04-25T16:10:12.557Z,43.95
2023-04-25T16:12:40.775Z,43.85
2023-04-25T16:15:08.085Z,43.91
2023-04-25T16:17:35.239Z,44.38
2023-04-25T16:20:05.417Z,45.06
2023-04-25T16:22:32.367Z,45.08
2023-04-25T16:24:59.121Z,45.94
2023-04-25T16:27:25.901Z,46.34
2023-04-25T16:29:52.663Z,46.79
2023-04-25T16:32:19.649Z,47.44
2023-04-25T16:34:46.468Z,47.65
2023-04-25T16:37:13.180Z,48.46
2023-04-25T16:39:39.981Z,48.67
2023-04-25T16:42:06.912Z,48.80
2023-04-25T16:44:33.596Z,49.12
2023-04-25T16:47:00.448Z,48.92
2023-04-25T16:49:28.557Z,49.09
2023-04-25T16:51:55.676Z,49.35
2023-04-25T16:54:22.441Z,49.86
2023-04-25T16:56:49.130Z,49.88
2023-04-25T16:59:15.863Z,49.98
2023-04-25T17:01:42.576Z,50.25
2023-04-25T17:04:09.542Z,50.25
2023-04-25T17:06:36.439Z,50.72
2023-04-25T17:09:03.207Z,51.12
2023-04-25T17:11:30.376Z,51.24
2023-04-25T17:13:57.178Z,51.95
2023-04-25T17:16:24.138Z,50.64
2023-04-25T17:18:51.666Z,51.32
2023-04-25T17:21:19.012Z,52.20
2023-04-25T17:23:45.938Z,53.73
2023-04-25T17:26:13.191Z,53.34
2023-04-25T17:28:41.941Z,53.17
2023-04-25T17:31:09.810Z,54.69
2023-04-25T17:33:36.733Z,54.55
2023-04-25T17:36:04.174Z,54.44
2023-04-25T17:38:31.623Z,54.53
2023-04-25T17:40:58.876Z,55.32
2023-04-25T17:43:27.568Z,55.38
2023-04-25T17:45:54.659Z,55.32
2023-04-25T17:48:24.945Z,55.72
2023-04-25T17:50:51.723Z,55.78
2023-04-25T17:53:18.561Z,55.40
2023-04-25T17:55:45.372Z,55.56
2023-04-25T17:58:12.232Z,55.78
2023-04-25T18:00:39.141Z,55.59
2023-04-25T18:03:06.878Z,55.08
2023-04-25T18:05:33.634Z,56.38
2023-04-25T18:08:00.750Z,56.24
2023-04-25T18:10:27.790Z,56.89
2023-04-25T18:12:54.576Z,58.18
2023-04-25T18:15:22.166Z,58.86
2023-04-25T18:17:49.193Z,59.69
2023-04-25T18:20:17.192Z,60.43
2023-04-25T18:22:45.340Z,61.68
2023-04-25T18:25:13.389Z,61.96
2023-04-25T18:27:40.909Z,62.67
2023-04-25T18:30:09.491Z,62.82
2023-04-25T18:32:36.825Z,62.87
2023-04-25T18:35:04.593Z,62.20
2023-04-25T18:37:31.424Z,63.01
2023-04-25T18:39:58.633Z,62.36
2023-04-25T18:42:25.480Z,62.32
2023-04-25T18:44:52.480Z,62.59
2023-04-25T18:47:19.458Z,62.46
2023-04-25T18:49:47.727Z,62.93
2023-04-25T18:52:16.059Z,62.22
2023-04-25T18:54:42.944Z,62.58
2023-04-25T18:57:11.549Z,62.25
2023-04-25T18:59:38.223Z,62.59
2023-04-25T19:02:05.474Z,62.81
2023-04-25T19:04:32.726Z,63.01
2023-04-25T19:06:59.787Z,63.19
2023-04-25T19:09:26.720Z,63.24
2023-04-25T19:11:54.171Z,63.40
2023-04-25T19:14:20.974Z,63.79
2023-04-25T19:16:47.750Z,63.92
2023-04-25T19:19:14.598Z,63.98
2023-04-25T19:21:41.822Z,64.06
2023-04-25T19:24:08.862Z,64.17
2023-04-25T19:26:35.722Z,63.77
2023-04-25T19:29:07.262Z,63.86
2023-04-25T19:31:38.159Z,64.15
2023-04-25T19:34:06.338Z,64.11
2023-04-25T19:36:33.762Z,64.56
2023-04-25T19:39:04.605Z,64.65
2023-04-25T19:41:33.337Z,64.91
2023-04-25T19:44:04.580Z,65.31
2023-04-25T19:46:34.468Z,65.46
2023-04-25T19:49:01.613Z,65.77
2023-04-25T19:51:28.999Z,66.00
2023-04-25T19:53:56.003Z,66.44
2023-04-25T19:56:24.353Z,66.44
2023-04-25T19:58:51.476Z,66.50
2023-04-25T20:01:22.068Z,66.82
2023-04-25T20:03:51.788Z,66.48
2023-04-25T20:06:18.931Z,66.73
2023-04-25T20:08:47.076Z,66.53
2023-04-25T20:11:14.901Z,66.79
2023-04-25T20:13:41.942Z,66.89
2023-04-25T20:16:08.850Z,66.89
2023-04-25T20:18:35.647Z,67.43
2023-04-25T20:21:03.185Z,68.02
2023-04-25T20:23:30.070Z,68.62
2023-04-25T20:25:56.919Z,68.75
2023-04-25T20:28:23.757Z,69.03
2023-04-25T20:30:50.841Z,69.20
2023-04-25T20:33:17.603Z,69.73
2023-04-25T20:35:44.361Z,69.82
2023-04-25T20:38:12.057Z,70.14
2023-04-25T20:40:38.842Z,70.84
2023-04-25T20:43:05.767Z,70.44
2023-04-25T20:45:34.446Z,70.43
2023-04-25T20:48:02.710Z,70.36
2023-04-25T20:50:29.567Z,70.54
2023-04-25T20:52:56.300Z,71.17
2023-04-25T20:55:23.004Z,71.02
2023-04-25T20:57:50.099Z,71.12
2023-04-25T21:00:18.739Z,71.52
2023-04-25T21:02:46.650Z,71.75
2023-04-25T21:05:13.741Z,71.83
2023-04-25T21:07:40.539Z,71.49
2023-04-25T21:10:07.584Z,71.39
2023-04-25T21:12:35.573Z,71.66
2023-04-25T21:15:02.510Z,71.94
2023-04-25T21:17:29.343Z,71.63
2023-04-25T21:19:56.659Z,72.00
2023-04-25T21:22:23.491Z,72.31
2023-04-25T21:24:50.778Z,72.49
2023-04-25T21:27:17.714Z,72.88
2023-04-25T21:29:45.004Z,72.90
2023-04-25T21:32:11.794Z,73.09
2023-04-25T21:34:38.534Z,72.95
2023-04-25T21:37:05.844Z,73.12
2023-04-25T21:39:32.848Z,73.46
2023-04-25T21:42:01.349Z,73.51
2023-04-25T21:44:30.229Z,73.61
2023-04-25T21:46:57.120Z,73.58
2023-04-25T21:49:29.199Z,74.17
2023-04-25T21:51:56.964Z,74.19
2023-04-25T21:54:23.721Z,74.31
2023-04-25T21:56:51.744Z,74.78
2023-04-25T21:59:18.436Z,74.76
2023-04-25T22:01:45.475Z,74.81
2023-04-25T22:04:12.496Z,74.94
2023-04-25T22:06:39.362Z,75.02
2023-04-25T22:09:06.102Z,75.29
2023-04-25T22:11:32.857Z,75.29
2023-04-25T22:13:59.723Z,75.15
2023-04-25T22:16:26.441Z,75.58
2023-04-25T22:18:53.709Z,75.41
2023-04-25T22:21:20.668Z,75.77
2023-04-25T22:23:47.357Z,76.15
2023-04-25T22:26:14.416Z,76.03
2023-04-25T22:28:41.372Z,76.54
2023-04-25T22:31:08.573Z,76.72
2023-04-25T22:33:35.868Z,76.86
2023-04-25T22:36:03.199Z,76.83
2023-04-25T22:38:30.501Z,76.83
2023-04-25T22:40:57.258Z,76.71
2023-04-25T22:43:24.070Z,77.48
2023-04-25T22:45:52.236Z,77.52
2023-04-25T22:48:19.634Z,77.65
2023-04-25T22:50:46.568Z,77.59
2023-04-25T22:53:13.330Z,77.94
2023-04-25T22:55:40.074Z,77.68
2023-04-25T22:58:10.098Z,77.16
2023-04-25T23:00:37.701Z,77.06
2023-04-25T23:03:04.966Z,76.63
2023-04-25T23:05:32.972Z,76.17
2023-04-25T23:07:59.866Z,75.66
2023-04-25T23:10:28.182Z,75.57
2023-04-25T23:12:57.960Z,74.98
2023-04-25T23:15:30.974Z,74.40
2023-04-25T23:17:58.577Z,74.28
2023-04-25T23:20:25.465Z,74.42
2023-04-25T23:22:52.652Z,74.13
2023-04-25T23:25:19.399Z,74.03
2023-04-25T23:27:46.238Z,73.45
2023-04-25T23:30:13.783Z,73.47
2023-04-25T23:32:40.651Z,73.62
2023-04-25T23:35:08.174Z,73.55
2023-04-25T23:37:37.167Z,73.80
2023-04-25T23:40:10.578Z,73.84
2023-04-25T23:42:38.069Z,73.37
2023-04-25T23:45:06.740Z,73.52
2023-04-25T23:47:34.086Z,73.67
2023-04-25T23:50:01.628Z,73.51
2023-04-25T23:52:28.563Z,73.80
2023-04-25T23:54:56.253Z,73.85
2023-04-25T23:57:22.973Z,73.57
2023-04-25T23:59:49.791Z,73.46
